Wilmington, OH

8:28 AM EST on November 28, 2014 (GMT -0500)
Airborne | Change Station
CLOSE
Current Station
Airport
Location: Wilmington,
Elevation: 1076 ft
Nearby Weather Stations

Elev 1076 ft 39.42 °N, 83.82 °W | Updated 34 minutes ago

Overcast
Overcast
23 °F
Feels Like 23 °F
N
0
Wind Variable Wind from North

Today
High -- | Low -- °F
--% Chance of Precip.
Yesterday
High -- | Low -- °F
Precip. -- in
7:33 AM 5:13 PM
Waxing Crescent, 40% visible
Pressure 30.48 in
Visibility 10.0 miles
Clouds Overcast 3500 ft
Dew Point 15 °F
Humidity 72%
Rainfall 0.01 in
Snow Depth Not available.
UV 0 out of 12
Pollen .10 out of 12
Air Quality Not available.
Flu Activity Not available.
METAR KILN 281254Z AUTO 00000KT 10SM OVC035 M05/M09 A3038 RMK AO2 SLP319 T10501094

More Conditions Fewer Conditions

Pressure 30.48 in
Visibility 10.0 miles
Clouds Overcast 3500 ft
Dew Point 15 °F
Humidity 72%
Rainfall 0.01 in
Snow Depth Not available.
UV 0 out of 12
Pollen .10 out of 12
Air Quality Not available.
Flu Activity Not available.
METAR KILN 281254Z AUTO 00000KT 10SM OVC035 M05/M09 A3038 RMK AO2 SLP319 T10501094

More Conditions Fewer Conditions

10-Day Weather Forecast

Almanac

Astronomy

Nov. 28, 2014 Rise Set
Actual Time
Civil Twilight
Nautical Twilight
Astronomical Twilight
Moon
Length of Visible Light
Length of Day
Tomorrow will be .
, % of the Moon is Illuminated

Today's Extremes

State Highs State Lows

Community

WunderPhotos

Upload Photos

1,774,204 photos uploaded!

WunderBlogs® & News

Nearby

Air Quality

  Air Quality AQ Index Pollutant
Not available.

Snow Depth

Station Depth Elevation

Earthquake Activity

City Distance Mag. Time & Date
Minimum magnitude displayed is 2.5.

Coastal Water Temperatures

Place Temperature

Nearby Weather Stations